ADDS METAR Data INFO
IDs: Format: Raw Decoded Include TAF

Data at: 0903 UTC 20 Oct 2017

KGKT 200855Z AUTO 00000KT 10SM CLR 06/05 A3028 RMK A01
KGKT 200835Z AUTO 00000KT 10SM CLR 06/06 A3028 RMK A01
KGKT 200815Z AUTO 00000KT 10SM CLR 06/06 A3028 RMK A01
KGKT 200755Z AUTO 00000KT 10SM CLR 06/06 A3028 RMK A01
KGKT 200735Z AUTO 00000KT 10SM CLR 07/06 A3028 RMK A01
KGKT 200715Z AUTO 00000KT 10SM CLR 06/06 A3028 RMK A01
KGKT 200655Z AUTO 00000KT 10SM CLR 07/06 A3029 RMK A01
KGKT 200635Z AUTO 00000KT 10SM CLR 07/06 A3029 RMK A01
KGKT 200615Z AUTO 00000KT 10SM CLR 07/06 A3028 RMK A01
KGKT 200550Z AUTO 00000KT 10SM CLR 07/07 A3028 RMK A01
KGKT 200535Z AUTO 00000KT 10SM CLR 08/07 A3028 RMK A01
KGKT 200515Z AUTO 00000KT 10SM CLR 08/07 A3027 RMK A01
KGKT 200455Z AUTO 00000KT 10SM CLR 08/07 A3027 RMK A01
KGKT 200435Z AUTO 00000KT 10SM CLR 08/07 A3027 RMK A01
KGKT 200415Z AUTO 00000KT 10SM CLR 08/07 A3027 RMK A01
KGKT 200355Z AUTO 00000KT 10SM CLR 08/07 A3028 RMK A01
KGKT 200335Z AUTO 00000KT 10SM CLR 09/07 A3028 RMK A01
KGKT 200315Z AUTO 00000KT 10SM CLR 09/08 A3028 RMK A01
KGKT 200255Z AUTO 00000KT 10SM CLR 09/08 A3028 RMK A01
KGKT 200235Z AUTO 00000KT 10SM CLR 10/08 A3028 RMK A01
KGKT 200215Z AUTO 00000KT 10SM CLR 10/08 A3028 RMK A01
KGKT 200155Z AUTO 00000KT 10SM CLR 11/08 A3028 RMK A01
KGKT 200135Z AUTO 00000KT 10SM CLR 11/08 A3027 RMK A01
KGKT 200115Z AUTO 00000KT 10SM CLR 12/08 A3027 RMK A01
KGKT 200055Z AUTO 00000KT 10SM CLR 12/07 A3027 RMK A01
KGKT 200035Z AUTO 00000KT 10SM CLR 13/07 A3027 RMK A01
KGKT 200015Z AUTO 00000KT 10SM CLR 13/06 A3027 RMK A01
KGKT 192355Z AUTO 00000KT 10SM CLR 14/07 A3026 RMK A01
KGKT 192335Z AUTO 00000KT 10SM CLR 15/06 A3026 RMK A01
KGKT 192315Z AUTO 00000KT 10SM CLR 16/06 A3025 RMK A01
KGKT 192255Z AUTO 00000KT 10SM CLR 18/05 A3025 RMK A01
KGKT 192235Z AUTO 00000KT 10SM CLR 19/05 A3024 RMK A01
KGKT 192215Z AUTO 00000KT 10SM CLR 21/04 A3024 RMK A01
KGKT 192155Z AUTO 00000KT 10SM CLR 22/02 A3024 RMK A01
KGKT 192135Z AUTO 00000KT 10SM CLR 22/03 A3024 RMK A01
KGKT 192115Z AUTO 00000KT 10SM CLR 22/02 A3024 RMK A01
KGKT 192055Z AUTO 00000KT 10SM CLR 22/04 A3025 RMK A01
KGKT 192035Z AUTO 35003KT 10SM CLR 23/04 A3025 RMK A01
KGKT 192015Z AUTO 00000KT 10SM CLR 22/03 A3026 RMK A01
KGKT 191955Z AUTO 00000KT 10SM CLR 22/03 A3026 RMK A01
KGKT 191935Z AUTO 00000KT 10SM CLR 21/03 A3027 RMK A01
KGKT 191915Z AUTO 00000KT 10SM CLR 22/05 A3027 RMK A01
KGKT 191855Z AUTO 32004KT 10SM CLR 22/05 A3028 RMK A01
KGKT 191835Z AUTO 00000KT 10SM CLR 21/06 A3029 RMK A01
KGKT 191815Z AUTO 00000KT 10SM CLR 20/07 A3030 RMK A01
KGKT 191755Z AUTO 03003KT 10SM CLR 20/08 A3031 RMK A01
KGKT 191735Z AUTO VRB04KT 10SM CLR 19/09 A3033 RMK A01
KGKT 191715Z AUTO 00000KT 10SM CLR 19/09 A3033 RMK A01
KGKT 191655Z AUTO 00000KT 10SM CLR 18/09 A3034 RMK A01
KGKT 191635Z AUTO 00000KT 10SM CLR 17/09 A3034 RMK A01
KGKT 191615Z AUTO VRB04KT 10SM CLR 17/09 A3035 RMK A01
KGKT 191555Z AUTO VRB03KT 10SM CLR 16/10 A3035 RMK A01
KGKT 191535Z AUTO 00000KT 10SM CLR 15/10 A3036 RMK A01
KGKT 191515Z AUTO 00000KT 10SM CLR 15/10 A3036 RMK A01
KGKT 191455Z AUTO 00000KT 10SM CLR 13/10 A3037 RMK A01
KGKT 191435Z AUTO 00000KT 10SM CLR 12/10 A3037 RMK A01
KGKT 191415Z AUTO 00000KT 10SM SCT003 10/09 A3037 RMK A01
KGKT 191355Z AUTO 00000KT 1SM BR OVC003 09/09 A3036 RMK A01
KGKT 191335Z AUTO 00000KT 1/4SM FG OVC003 08/08 A3036 RMK A01
KGKT 191315Z AUTO 00000KT M1/4SM FG OVC002 08/08 A3036 RMK A01
KGKT 191255Z AUTO 00000KT M1/4SM FG OVC002 07/07 A3035 RMK A01
KGKT 191235Z AUTO 00000KT 9SM OVC003 06/06 A3034 RMK A01
KGKT 191215Z AUTO 00000KT 8SM BKN005 06/05 A3034 RMK A01
KGKT 191155Z AUTO 00000KT 10SM FEW006 05/05 A3033 RMK A01
KGKT 191135Z AUTO 00000KT 10SM CLR 05/05 A3033 RMK A01
KGKT 191115Z AUTO 00000KT 10SM CLR 05/05 A3033 RMK A01
KGKT 191055Z AUTO 00000KT 10SM CLR 05/05 A3032 RMK A01
KGKT 191035Z AUTO 00000KT 10SM CLR 05/05 A3031 RMK A01
KGKT 191015Z AUTO 00000KT 9SM CLR 05/05 A3030 RMK A01
KGKT 190955Z AUTO 00000KT 10SM CLR 06/05 A3029 RMK A01
KGKT 190935Z AUTO 00000KT 10SM CLR 06/06 A3029 RMK A01
KGKT 190915Z AUTO 00000KT 10SM CLR 06/05 A3029 RMK A01
KGKT 190855Z AUTO 00000KT 10SM CLR 06/06 A3028 RMK A01
KGKT 190835Z AUTO 00000KT 9SM CLR 06/06 A3028 RMK A01
KGKT 190815Z AUTO 00000KT 10SM CLR 06/06 A3028 RMK A01
KGKT 190755Z AUTO 00000KT 10SM CLR 06/06 A3028 RMK A01
KGKT 190735Z AUTO 00000KT 10SM CLR 07/06 A3028 RMK A01
KGKT 190715Z AUTO 00000KT 10SM CLR 07/07 A3028 RMK A01
KGKT 190655Z AUTO 00000KT 10SM CLR 07/07 A3028 RMK A01
KGKT 190635Z AUTO 00000KT 10SM CLR 07/07 A3027 RMK A01
KGKT 190615Z AUTO 00000KT 9SM CLR 07/07 A3027 RMK A01
KGKT 190555Z AUTO 00000KT 10SM CLR 08/07 A3027 RMK A01
KGKT 190535Z AUTO 00000KT 8SM CLR 08/07 A3027 RMK A01
KGKT 190515Z AUTO 00000KT 10SM CLR 08/08 A3027 RMK A01
KGKT 190455Z AUTO 00000KT 10SM CLR 08/08 A3028 RMK A01
KGKT 190435Z AUTO 00000KT 10SM CLR 09/08 A3028 RMK A01
KGKT 190415Z AUTO 00000KT 10SM CLR 09/08 A3028 RMK A01
KGKT 190355Z AUTO 00000KT 10SM CLR 09/08 A3029 RMK A01
KGKT 190335Z AUTO 00000KT 10SM CLR 10/09 A3028 RMK A01
KGKT 190315Z AUTO 00000KT 10SM CLR 10/09 A3029 RMK A01
KGKT 190255Z AUTO 00000KT 10SM CLR 10/09 A3029 RMK A01
KGKT 190235Z AUTO 00000KT 10SM CLR 11/09 A3029 RMK A01
KGKT 190215Z AUTO 00000KT 10SM CLR 11/09 A3029 RMK A01
KGKT 190155Z AUTO 00000KT 10SM CLR 12/09 A3028 RMK A01
KGKT 190135Z AUTO 00000KT 10SM CLR 12/09 A3028 RMK A01
KGKT 190115Z AUTO 00000KT 10SM CLR 13/09 A3028 RMK A01
KGKT 190055Z AUTO 00000KT 10SM CLR 13/09 A3028 RMK A01
KGKT 190035Z AUTO 00000KT 10SM CLR 13/09 A3027 RMK A01
KGKT 190015Z AUTO 00000KT 10SM CLR 14/09 A3027 RMK A01
KGKT 182355Z AUTO 00000KT 10SM CLR 14/08 A3026 RMK A01
KGKT 182335Z AUTO 00000KT 10SM CLR 15/08 A3026 RMK A01
KGKT 182315Z AUTO 00000KT 10SM CLR 16/07 A3026 RMK A01
KGKT 182255Z AUTO 00000KT 10SM CLR 17/08 A3026 RMK A01
KGKT 182235Z AUTO 00000KT 10SM CLR 20/07 A3026 RMK A01
KGKT 182215Z AUTO 01004KT 10SM CLR 20/07 A3026 RMK A01
KGKT 182155Z AUTO 02004KT 10SM CLR 21/06 A3026 RMK A01
KGKT 182135Z AUTO 02005KT 10SM CLR 20/06 A3026 RMK A01
KGKT 182115Z AUTO 36005KT 10SM CLR 21/05 A3025 RMK A01